Weather at Aba Airport

Public forecast

Using degrees Celsius for public forecast. Weather courtesy of forecast.io.

Closest aviation weather report (METAR) to Aba Airport

Report is more than 6 hours old.

Closest report is Bom Jesus da Lapa Airport, 115.8 nm (214.5 km) SE. Retrieved 2021/01/18 21:00 UTC (4 days ago):

SBLP 182100Z AUTO /////KT ///V/// //// // ///////// ///// Q////

Closest aviation forecast (TAF) to Aba Airport

Forecast is more than 12 hours old.

Closest forecast is Bom Jesus da Lapa Airport, 115.8 nm (214.5 km) SE. Retrieved 2019/06/15 06:30 UTC (2 years ago):

TAF SBLP 150400Z 1506/1518 32005KT 9999 SCT030 TN29/1508Z TX36/1518Z RMK PED